Reklama

Seznam meteostanic a jejich METAR

Vyhledat místa podle abecedy:
A B C D E F G H I J K L M N O P Q R S T U V W X Y Z

Filtrovat:

ID stanice:
a/nebo
Název místa (fulltext):
 
Místo (ID)Naposledy načteno 
Antwerp (EBAW) 15.11.2018 11:50 UTC Zobrazit METAR
EBAW 151150Z 13007KT CAVOK 12/06 Q1024 NOSIG
Apia (NSFA) 15.11.2018 12:00 UTC Zobrazit METAR
NSFA 151200Z VRB03KT 9999 SCT022 BKN120 26/25 Q1008
Aruba I (TNCA) 15.11.2018 12:00 UTC Zobrazit METAR
TNCA 151200Z 10011KT 9999 FEW018 29/25 Q1011 NOSIG
Ascension I. (FHAW) 14.11.2018 07:50 UTC Zobrazit METAR
FHAW 140750Z 12007KT 6000 FEW005 BKN012 OVC035 22/20 Q1014 GRN TEMPO 9999 SCT018 WHT
Ashgabat (UTAA) 15.11.2018 12:00 UTC Zobrazit METAR
UTAA 151200Z 10008KT 9999 SCT050 OVC100 09/M06 Q1024 R88/CLRD70 NOSIG
Asmara (HHAS) 03.02.2015 17:00 UTC Zobrazit METAR
HHAS 031700Z 27004KT CAVOK 15/06 Q1028 NOSIG
Astana (UACC) Zatím nenačteno  
Astrakhan (URWA) Zatím nenačteno  
Asuncion (SGAS) 15.11.2018 12:00 UTC Zobrazit METAR
SGAS 151200Z 16006KT 110V190 CAVOK 24/15 Q1013
Athens (LGAV) 15.11.2018 11:50 UTC Zobrazit METAR
LGAV 151150Z 36011KT 9999 FEW020 SCT030 16/06 Q1019 NOSIG
Baghdad (ORBS) 06.06.2012 04:00 UTC  
Bagram (KQSA) 11.05.2016 15:58 UTC Zobrazit METAR
KQSA 111558Z VRB06KT 9999 BKN140 21/09 A3000 RMK AO2A SLP070 T02080091 $
Bahrain (OBBI) 15.11.2018 12:00 UTC Zobrazit METAR
OBBI 151200Z 13010KT CAVOK 31/21 Q1011 NOSIG
Baku (UBBB) 15.11.2018 12:00 UTC Zobrazit METAR
UBBB 151200Z 14013KT 9999 SCT026 13/07 Q1021 R88/CLRD// NOSIG
Bamako (GABS) 15.11.2018 12:00 UTC Zobrazit METAR
GABS 151200Z VRB02KT CAVOK 35/13 Q1012 NOSIG
Bandar Seri Begawan (WBSB) 15.11.2018 12:00 UTC Zobrazit METAR
WBSB 151200Z 31001KT 9999 FEW015 BKN140 29/25 Q1011 NOSIG
Bangkok (VTBD) 15.11.2018 12:00 UTC Zobrazit METAR
VTBD 151200Z 22005KT 170V280 8000 FEW030 31/26 Q1009 NOSIG
Bangui (FEFF) 15.11.2018 12:00 UTC Zobrazit METAR
FEFF 151200Z 20006KT 9999 SCT020 26/17 Q1007 NOSIG
Banja Luka (LQBK) 15.11.2018 12:00 UTC Zobrazit METAR
LQBK 151200Z 36004KT 9999 FEW036 11/05 Q1028 NOSIG
Banjul (GBYD) 15.11.2018 12:00 UTC Zobrazit METAR
GBYD 151200Z 34005KT CAVOK 25/15 Q1011
Barbados (TBPB) 15.11.2018 12:00 UTC Zobrazit METAR
TBPB 151200Z 09021KT 9999 SCT020 29/24 Q1013 NOSIG
Barcelona (LEBL) 15.11.2018 02:00 UTC Zobrazit METAR
LEBL 150200Z 05004KT 7000 SCT005 BKN010 17/16 Q1021 TEMPO 4000 RA
Bari (LIBD) 15.11.2018 11:50 UTC Zobrazit METAR
LIBD 151150Z 36008KT 330V040 9999 FEW020 17/11 Q1022
Basle-Mulhouse (LFSB) 15.11.2018 12:00 UTC Zobrazit METAR
LFSB 151200Z 09006KT 050V110 9999 FEW013 BKN014 10/07 Q1025 BECMG SCT014
Basse-Terre (TFFB) Zatím nenačteno  
Basseterre (TKPK) 15.11.2018 12:00 UTC Zobrazit METAR
TKPK 151200Z 08013KT 9999 SCT020 28/23 Q1016
Beijing (ZBAA) Zatím nenačteno  
Beirut (OLBA) 15.11.2018 12:00 UTC Zobrazit METAR
OLBA 151200Z 34008KT 8000 SCT026 21/12 Q1013 NOSIG
Belfast (EGAA) 15.11.2018 11:50 UTC Zobrazit METAR
EGAA 151150Z 17012KT 9999 BKN016 13/10 Q1010
Belgrade (LYBE) 15.11.2018 12:00 UTC Zobrazit METAR
LYBE 151200Z 33004KT 280V050 9999 FEW040 13/04 Q1027 NOSIG
Belize City (MZBZ) 15.11.2018 12:00 UTC Zobrazit METAR
MZBZ 151200Z 30008KT 9999 BKN007 BKN033 20/19 A3009 Q1019 NOSIG
Bergen (ENBR) 15.11.2018 11:50 UTC Zobrazit METAR
ENBR 151150Z 18020KT 9999 FEW009 BKN014 11/09 Q1020 TEMPO BKN009 RMK WIND 1200FT 16024KT
Berlin (EDDT) 15.11.2018 11:50 UTC Zobrazit METAR
EDDT 151150Z 11008KT 070V140 CAVOK 10/06 Q1030 NOSIG
Bermuda Is (TXKF) 15.11.2018 11:55 UTC Zobrazit METAR
TXKF 151155Z 04016KT 9999 -DZ BKN014 OVC050 21/19 Q1024
Bern (LSZB) 15.11.2018 11:50 UTC Zobrazit METAR
LSZB 151150Z 01002KT 9999 BKN009 08/06 Q1025 NOSIG
Billund (EKBI) 14.11.2018 07:50 UTC Zobrazit METAR
EKBI 140750Z 18004KT 9999 SCT035 BKN220 05/05 Q1024
Birmingham (EGBB) 15.11.2018 11:50 UTC Zobrazit METAR
EGBB 151150Z 16010KT 9999 FEW013 12/09 Q1019
Bishkek (UAFM) Zatím nenačteno  
Bissau (GGOV) 15.11.2018 12:00 UTC Zobrazit METAR
GGOV 151200Z 01006KT 340V040 CAVOK 28/20 Q1011 NOSIG
Bogota (SKBO) 15.11.2018 10:00 UTC Zobrazit METAR
SKBO 151000Z VRB02KT 9999 MIFG FEW017 10/10 A3029
Bologna (LIPE) 15.11.2018 11:50 UTC Zobrazit METAR
LIPE 151150Z 28005KT 1600 BR BKN005 BKN040 12/12 Q1026
Bordeaux (LFBD) 15.11.2018 12:00 UTC Zobrazit METAR
LFBD 151200Z AUTO 13005KT 090V170 CAVOK 18/14 Q1019 NOSIG
Bornholm (EKRN) 14.11.2018 18:50 UTC Zobrazit METAR
EKRN 141850Z 28005KT 9999 BKN012 09/08 Q1029
Brasilia (SBBR) 15.11.2018 12:00 UTC Zobrazit METAR
SBBR 151200Z 06004KT 9999 FEW020 BKN100 24/19 Q1018
Bratislava (LZIB) 15.11.2018 12:00 UTC Zobrazit METAR
LZIB 151200Z 08006KT 060V120 9999 FEW030 11/03 Q1029 NOSIG
Brazzaville (FCBB) 15.11.2018 12:00 UTC Zobrazit METAR
FCBB 151200Z 25003KT 160V360 9999 BKN020 29/23 Q1011 NOSIG
Bremen (EDDW) 15.11.2018 03:50 UTC Zobrazit METAR
EDDW 150350Z 13004KT 6000 NSC 04/04 Q1027 BECMG 3500 BR
Brest (UMBB) Zatím nenačteno  
Brest (LFRB) 15.11.2018 12:00 UTC Zobrazit METAR
LFRB 151200Z AUTO 16008KT 9000 OVC007 13/12 Q1017 NOSIG
Brno (LKTB) 15.11.2018 12:00 UTC Zobrazit METAR
LKTB 151200Z 07009KT 9999 FEW026 10/02 Q1029 NOSIG
Předchozí 1 2 3 4 ... 9 Další
Reklama

Počasí na Váš email

Emaily jsou bez reklamy a bez spamu



Odhlásit newsletter

Reklama


Lunární kalendář

  • 23.11.
  • 30.11.
  • 07.12.
  • 15.12.



Reklama


Reklama
Povinné ručení
Reklama



Reklama